Time;durP1;ratioP1;P1;durP2;ratioP2;P2;SDS_P1;SDS_P2;PMS_P1;PMS_P2;Temp;Humidity;BMP_temperature;BMP_pressure;BME280_temperature;BME280_humidity;BME280_pressure;Samples;Min_cycle;Max_cycle;Signal;HPM_P1;HPM_P2
2022/09/08 00:00:08;;;;;;;12.85;11.10;;;17.90;99.90;;;;;;5040296;28;20579;-57
2022/09/08 00:02:37;;;;;;;15.82;11.73;;;17.90;99.90;;;;;;5039246;28;20052;-57
2022/09/08 00:05:08;;;;;;;16.00;12.05;;;17.90;99.90;;;;;;5041413;28;20051;-60
2022/09/08 00:07:35;;;;;;;13.90;11.65;;;17.90;99.90;;;;;;5037635;28;20067;-58
2022/09/08 00:10:02;;;;;;;14.60;11.88;;;17.90;99.90;;;;;;5035148;28;21813;-59
2022/09/08 00:12:29;;;;;;;20.38;13.30;;;17.80;99.90;;;;;;5035015;28;20467;-60
2022/09/08 00:14:55;;;;;;;15.45;11.93;;;17.90;99.90;;;;;;5036188;28;20071;-60
2022/09/08 00:17:22;;;;;;;18.98;11.55;;;17.80;99.90;;;;;;5021020;28;20060;-57
2022/09/08 00:19:48;;;;;;;16.58;11.23;;;17.80;99.90;;;;;;5036488;28;20052;-60
2022/09/08 00:22:14;;;;;;;16.50;12.25;;;17.80;99.90;;;;;;5036958;28;20060;-60
2022/09/08 00:24:39;;;;;;;20.13;11.57;;;17.80;99.90;;;;;;5042094;28;20067;-60
2022/09/08 00:27:05;;;;;;;14.90;12.45;;;17.80;99.90;;;;;;5036684;28;20123;-56
2022/09/08 00:29:31;;;;;;;15.77;12.45;;;17.70;99.90;;;;;;5037192;28;20071;-59
2022/09/08 00:31:57;;;;;;;17.63;14.23;;;17.70;99.90;;;;;;5039546;28;20048;-60
2022/09/08 00:34:23;;;;;;;15.10;13.40;;;17.70;99.90;;;;;;5038490;28;20155;-57
2022/09/08 00:36:48;;;;;;;14.35;12.63;;;17.70;99.90;;;;;;5035324;28;21693;-60
2022/09/08 00:39:15;;;;;;;16.55;13.02;;;17.70;99.90;;;;;;5039740;28;20429;-60
2022/09/08 00:41:41;;;;;;;17.83;14.05;;;17.70;99.90;;;;;;5036536;28;20048;-57
2022/09/08 00:44:49;;;;;;;15.88;14.13;;;17.70;99.90;;;;;;5040065;28;20503;-57
2022/09/08 00:47:38;;;;;;;21.00;15.27;;;17.70;99.90;;;;;;5037365;28;20106;-60
2022/09/08 00:50:12;;;;;;;18.38;14.38;;;17.70;99.90;;;;;;5040680;28;20148;-57
2022/09/08 00:53:10;;;;;;;17.05;14.75;;;17.70;99.90;;;;;;5034737;28;20044;-53
2022/09/08 00:55:38;;;;;;;19.02;14.90;;;17.60;99.90;;;;;;5022904;28;20045;-59
2022/09/08 00:58:05;;;;;;;20.50;16.55;;;17.60;99.90;;;;;;5019735;28;20465;-60
2022/09/08 01:00:31;;;;;;;19.85;16.05;;;17.60;99.90;;;;;;5021075;28;20305;-54
2022/09/08 01:02:57;;;;;;;18.25;15.85;;;17.60;99.90;;;;;;5020726;28;20049;-57
2022/09/08 01:05:30;;;;;;;20.10;17.42;;;17.60;99.90;;;;;;5041356;28;20059;-59
2022/09/08 01:14:13;;;;;;;25.23;18.13;;;17.60;99.90;;;;;;5035862;28;20131;-58
2022/09/08 01:16:46;;;;;;;24.02;19.27;;;17.50;99.90;;;;;;5038660;28;20044;-57
2022/09/08 01:19:28;;;;;;;29.60;20.33;;;17.60;99.90;;;;;;5037162;28;20063;-59
2022/09/08 01:22:22;;;;;;;22.35;19.95;;;17.50;99.90;;;;;;5030168;28;20146;-54
2022/09/08 01:25:11;;;;;;;24.48;20.73;;;17.50;99.90;;;;;;5036196;28;20382;-54
2022/09/08 01:27:39;;;;;;;24.08;20.95;;;17.50;99.90;;;;;;5038004;28;20109;-59
2022/09/08 01:30:08;;;;;;;25.33;21.90;;;17.50;99.90;;;;;;5036464;28;20044;-60
2022/09/08 01:32:38;;;;;;;24.15;21.17;;;17.50;99.90;;;;;;5035280;28;20044;-60
2022/09/08 01:35:05;;;;;;;25.65;21.85;;;17.50;99.90;;;;;;5036475;28;20102;-60
2022/09/08 01:37:31;;;;;;;27.48;22.25;;;17.40;99.90;;;;;;5035678;28;20048;-59
2022/09/08 01:39:57;;;;;;;29.27;23.13;;;17.40;99.90;;;;;;5014974;28;20773;-60
2022/09/08 01:42:24;;;;;;;28.30;23.13;;;17.40;99.90;;;;;;5040671;28;20049;-56
2022/09/08 01:44:50;;;;;;;27.20;22.75;;;17.40;99.90;;;;;;5035266;28;20107;-60
2022/09/08 01:47:16;;;;;;;27.58;23.40;;;17.40;99.90;;;;;;5037477;28;20060;-60
2022/09/08 01:49:42;;;;;;;28.75;23.75;;;17.40;99.90;;;;;;5033780;28;20048;-60
2022/09/08 01:52:09;;;;;;;27.08;24.17;;;17.40;99.90;;;;;;5032706;28;20476;-55
2022/09/08 01:54:34;;;;;;;29.10;25.05;;;17.40;99.90;;;;;;5038486;28;21239;-57
2022/09/08 01:57:01;;;;;;;28.95;25.00;;;17.40;99.90;;;;;;5038688;28;20051;-58
2022/09/08 01:59:27;;;;;;;29.15;25.60;;;17.40;99.90;;;;;;5035710;28;20045;-57
2022/09/08 02:01:53;;;;;;;26.90;23.33;;;17.40;99.90;;;;;;5011088;28;20569;-57
2022/09/08 02:04:19;;;;;;;29.40;24.42;;;17.40;99.90;;;;;;5035913;28;20702;-59
2022/09/08 02:06:45;;;;;;;30.02;25.30;;;17.30;99.90;;;;;;5036408;28;20045;-60
2022/09/08 02:09:12;;;;;;;32.30;25.48;;;17.40;99.90;;;;;;5010663;28;20052;-60
2022/09/08 02:11:38;;;;;;;31.15;26.33;;;17.40;99.90;;;;;;5039210;28;20806;-60
2022/09/08 02:14:03;;;;;;;33.28;26.98;;;17.40;99.90;;;;;;5034048;28;20049;-60
2022/09/08 02:16:30;;;;;;;30.95;25.20;;;17.50;99.90;;;;;;5034223;28;20041;-55
2022/09/08 02:18:56;;;;;;;33.33;27.38;;;17.50;99.90;;;;;;5020302;28;20871;-60
2022/09/08 02:21:24;;;;;;;29.45;26.25;;;17.50;99.90;;;;;;5034762;28;20573;-61
2022/09/08 02:23:50;;;;;;;31.02;25.55;;;17.60;99.90;;;;;;5033144;28;21304;-54
2022/09/08 02:26:23;;;;;;;29.73;26.00;;;17.60;99.90;;;;;;5017026;28;20191;-60
2022/09/08 02:28:53;;;;;;;30.23;26.15;;;17.70;99.90;;;;;;5035011;28;20073;-60
2022/09/08 02:31:19;;;;;;;30.52;26.25;;;17.70;99.90;;;;;;5041731;28;21079;-60
2022/09/08 02:33:45;;;;;;;33.30;26.67;;;17.70;99.90;;;;;;5038325;28;20084;-60
2022/09/08 02:36:11;;;;;;;32.50;26.67;;;17.80;99.90;;;;;;5040025;28;20049;-60
2022/09/08 02:38:38;;;;;;;30.52;26.52;;;17.80;99.90;;;;;;5039816;28;20044;-55
2022/09/08 02:41:04;;;;;;;38.60;27.50;;;17.80;99.90;;;;;;5040156;28;20198;-56
2022/09/08 02:43:30;;;;;;;31.52;27.35;;;17.90;99.90;;;;;;5034977;28;20049;-56
2022/09/08 02:45:56;;;;;;;34.58;27.17;;;17.90;99.90;;;;;;5032395;28;20123;-57
2022/09/08 02:48:22;;;;;;;31.48;27.60;;;17.90;99.90;;;;;;5039255;28;20770;-58
2022/09/08 02:50:47;;;;;;;32.38;28.05;;;17.90;99.90;;;;;;5024887;28;20040;-61
2022/09/08 02:53:14;;;;;;;30.17;26.42;;;17.90;99.90;;;;;;5022130;28;20075;-60
2022/09/08 02:55:41;;;;;;;33.47;27.55;;;17.90;99.90;;;;;;5035314;28;20045;-58
2022/09/08 02:58:08;;;;;;;35.60;28.98;;;17.90;99.90;;;;;;5039683;28;20052;-60
2022/09/08 03:00:38;;;;;;;32.90;27.40;;;17.90;99.90;;;;;;5037700;28;20041;-53
2022/09/08 03:03:04;;;;;;;36.40;30.33;;;17.90;99.90;;;;;;5041774;28;21102;-60
2022/09/08 03:05:31;;;;;;;40.03;31.25;;;17.90;99.90;;;;;;5021667;28;20133;-57
2022/09/08 03:08:03;;;;;;;34.30;29.38;;;17.90;99.90;;;;;;5036463;28;20591;-54
2022/09/08 03:10:29;;;;;;;33.47;28.60;;;17.90;99.90;;;;;;5039054;28;20048;-59
2022/09/08 03:12:57;;;;;;;34.45;28.63;;;17.90;99.90;;;;;;5041601;28;20498;-60
2022/09/08 03:15:25;;;;;;;32.53;28.50;;;17.90;99.90;;;;;;5039430;28;21032;-57
2022/09/08 03:17:52;;;;;;;39.83;29.50;;;17.90;99.90;;;;;;5026218;28;20044;-60
2022/09/08 03:20:18;;;;;;;34.92;30.30;;;17.90;99.90;;;;;;5005458;28;20052;-60
2022/09/08 03:22:44;;;;;;;35.30;29.58;;;17.90;99.90;;;;;;5034222;28;20048;-54
2022/09/08 03:25:10;;;;;;;35.92;29.67;;;17.80;99.90;;;;;;5024635;28;20122;-61
2022/09/08 03:27:36;;;;;;;35.22;30.77;;;17.80;99.90;;;;;;5024744;28;20095;-59
2022/09/08 03:30:07;;;;;;;38.67;31.15;;;17.80;99.90;;;;;;5011749;28;20075;-60
2022/09/08 03:32:37;;;;;;;38.03;30.05;;;17.80;99.90;;;;;;5032013;28;20119;-60
2022/09/08 03:35:05;;;;;;;36.33;30.80;;;17.80;99.90;;;;;;5039194;28;20049;-56
2022/09/08 03:37:31;;;;;;;39.70;32.83;;;17.80;99.90;;;;;;5033140;28;20502;-58
2022/09/08 03:39:56;;;;;;;34.47;29.48;;;17.80;99.90;;;;;;5033073;28;20140;-56
2022/09/08 03:42:22;;;;;;;38.50;30.95;;;17.70;99.90;;;;;;5040713;28;20055;-57
2022/09/08 03:44:48;;;;;;;41.45;33.03;;;17.70;99.90;;;;;;5040493;28;21180;-58
2022/09/08 03:47:14;;;;;;;41.80;32.03;;;17.70;99.90;;;;;;5045000;28;20068;-59
2022/09/08 03:49:40;;;;;;;38.30;32.53;;;17.70;99.90;;;;;;5029459;28;20048;-60
2022/09/08 03:52:07;;;;;;;42.03;34.65;;;17.70;99.90;;;;;;5042571;28;20045;-60
2022/09/08 03:54:50;;;;;;;40.38;33.10;;;17.70;99.90;;;;;;5051587;28;20106;-55
2022/09/08 03:57:24;;;;;;;39.10;33.03;;;17.70;99.90;;;;;;5030151;28;20128;-54
2022/09/08 03:59:51;;;;;;;41.63;33.65;;;17.70;99.90;;;;;;5029726;28;20759;-60
2022/09/08 04:02:19;;;;;;;41.67;34.17;;;17.70;99.90;;;;;;5026999;28;20513;-58
2022/09/08 04:04:53;;;;;;;43.47;33.78;;;17.70;99.90;;;;;;5039019;28;20041;-59
2022/09/08 04:07:29;;;;;;;41.97;34.78;;;17.70;99.90;;;;;;5038591;28;20494;-60
2022/09/08 04:09:57;;;;;;;46.60;35.20;;;17.70;99.90;;;;;;5015400;28;20562;-57
2022/09/08 04:12:24;;;;;;;43.53;33.38;;;17.70;99.90;;;;;;5028960;28;20126;-57
2022/09/08 04:14:51;;;;;;;46.22;36.40;;;17.70;99.90;;;;;;5022561;28;20044;-59
2022/09/08 04:17:19;;;;;;;43.70;34.25;;;17.70;99.90;;;;;;5021360;28;20052;-56
2022/09/08 04:19:47;;;;;;;41.17;35.08;;;17.80;99.90;;;;;;5021254;28;20039;-57
2022/09/08 04:22:13;;;;;;;45.33;36.40;;;17.80;99.90;;;;;;5020082;28;20589;-56
2022/09/08 04:24:38;;;;;;;47.20;38.55;;;17.80;99.90;;;;;;5027242;28;20178;-60
2022/09/08 04:27:04;;;;;;;46.17;36.80;;;17.80;99.90;;;;;;5037031;28;20052;-55
2022/09/08 04:29:30;;;;;;;38.15;33.28;;;17.80;99.90;;;;;;5021244;28;20064;-60
2022/09/08 04:31:56;;;;;;;45.47;37.20;;;17.80;99.90;;;;;;5034548;28;20084;-54
2022/09/08 04:34:22;;;;;;;44.28;36.25;;;17.80;99.90;;;;;;5036992;28;20049;-55
2022/09/08 04:36:47;;;;;;;48.20;37.58;;;17.80;99.90;;;;;;5021542;28;20137;-60
2022/09/08 04:39:16;;;;;;;47.40;36.92;;;17.80;99.90;;;;;;5028028;28;20052;-57
2022/09/08 04:41:43;;;;;;;45.00;36.17;;;17.80;99.90;;;;;;5034332;28;20040;-59
2022/09/08 04:44:09;;;;;;;48.67;37.58;;;17.80;99.90;;;;;;5038943;28;20708;-60
2022/09/08 04:46:36;;;;;;;47.45;36.45;;;17.80;99.90;;;;;;5037919;28;20056;-58
2022/09/08 04:49:03;;;;;;;51.95;37.28;;;17.80;99.90;;;;;;5035378;28;20183;-60
2022/09/08 04:51:30;;;;;;;50.95;40.10;;;17.80;99.90;;;;;;5041931;28;20393;-60
2022/09/08 04:53:57;;;;;;;50.35;39.10;;;17.80;99.90;;;;;;5040901;28;20098;-60
2022/09/08 04:56:24;;;;;;;46.20;38.55;;;17.80;99.90;;;;;;5024622;28;20897;-60
2022/09/08 04:58:51;;;;;;;46.25;37.65;;;17.80;99.90;;;;;;5042055;28;20152;-56
2022/09/08 05:01:19;;;;;;;47.42;37.85;;;17.80;99.90;;;;;;5044108;28;20045;-57
2022/09/08 05:03:45;;;;;;;46.78;38.20;;;17.80;99.90;;;;;;5042380;28;20044;-55
2022/09/08 05:06:14;;;;;;;51.30;40.17;;;17.80;99.90;;;;;;5042541;28;20398;-57
2022/09/08 05:08:49;;;;;;;49.50;38.97;;;17.80;99.90;;;;;;5025800;28;20041;-61
2022/09/08 05:11:17;;;;;;;49.03;38.88;;;17.80;99.90;;;;;;5044345;28;20048;-57
2022/09/08 05:13:43;;;;;;;51.05;39.92;;;17.80;99.90;;;;;;5021111;28;20303;-60
2022/09/08 05:16:12;;;;;;;47.45;38.58;;;17.80;99.90;;;;;;5041520;28;20044;-60
2022/09/08 05:18:38;;;;;;;53.75;40.63;;;17.80;99.90;;;;;;5035719;28;20045;-54
2022/09/08 05:21:05;;;;;;;49.47;41.00;;;17.80;99.90;;;;;;5032846;28;20413;-57
2022/09/08 05:23:31;;;;;;;45.88;38.55;;;17.80;99.90;;;;;;5036396;28;20044;-60
2022/09/08 05:26:06;;;;;;;47.83;39.20;;;17.80;99.90;;;;;;5038246;28;20126;-61
2022/09/08 05:28:35;;;;;;;51.00;40.92;;;17.80;99.90;;;;;;5036470;28;20052;-61
2022/09/08 05:31:01;;;;;;;48.65;39.25;;;17.80;99.90;;;;;;5034599;28;20178;-54
2022/09/08 05:33:27;;;;;;;50.78;40.55;;;17.90;99.90;;;;;;5009186;28;20071;-59
2022/09/08 05:35:53;;;;;;;46.13;38.20;;;17.90;99.90;;;;;;5036274;28;20131;-60
2022/09/08 05:38:20;;;;;;;51.88;40.58;;;17.90;99.90;;;;;;5028847;28;20048;-57
2022/09/08 05:40:46;;;;;;;51.78;38.78;;;17.90;99.90;;;;;;5033769;28;20139;-60
2022/09/08 05:43:13;;;;;;;53.10;39.70;;;17.90;99.90;;;;;;5016035;28;20490;-57
2022/09/08 05:45:46;;;;;;;49.88;40.13;;;17.90;99.90;;;;;;5036321;28;20414;-60
2022/09/08 05:48:13;;;;;;;45.58;39.00;;;18.00;99.90;;;;;;5036149;28;20105;-59
2022/09/08 05:50:44;;;;;;;45.72;38.25;;;17.90;99.90;;;;;;5038427;28;20579;-61
2022/09/08 05:53:10;;;;;;;47.40;39.63;;;18.00;99.90;;;;;;5032077;28;20623;-60
2022/09/08 05:55:36;;;;;;;47.15;38.00;;;18.00;99.90;;;;;;5031396;28;20048;-56
2022/09/08 05:58:02;;;;;;;44.55;37.70;;;18.00;99.90;;;;;;5029056;28;23367;-57
2022/09/08 06:00:28;;;;;;;50.33;38.65;;;18.00;99.90;;;;;;5032047;28;20055;-60
2022/09/08 06:02:54;;;;;;;47.85;37.28;;;18.10;99.90;;;;;;5039150;28;20471;-57
2022/09/08 06:05:22;;;;;;;45.30;35.30;;;18.10;99.90;;;;;;5036492;28;20052;-54
2022/09/08 06:07:48;;;;;;;42.90;36.53;;;18.10;99.90;;;;;;5032102;28;20123;-56
2022/09/08 06:10:16;;;;;;;42.78;36.22;;;18.10;99.90;;;;;;5036980;28;20151;-58
2022/09/08 06:12:42;;;;;;;45.58;36.35;;;18.10;99.90;;;;;;5028838;28;20486;-56
2022/09/08 06:15:09;;;;;;;44.50;36.92;;;18.20;99.90;;;;;;5016462;28;20053;-61
2022/09/08 06:17:36;;;;;;;44.28;35.20;;;18.20;99.90;;;;;;5019931;28;20066;-61
2022/09/08 06:20:03;;;;;;;45.13;34.95;;;18.20;99.90;;;;;;5034774;28;20102;-61
2022/09/08 06:22:32;;;;;;;40.20;35.08;;;18.20;99.90;;;;;;5042428;28;20136;-59
2022/09/08 06:24:58;;;;;;;41.63;35.50;;;18.20;99.90;;;;;;5034637;28;20451;-61
2022/09/08 06:27:49;;;;;;;41.10;34.33;;;18.30;99.90;;;;;;5041580;28;20425;-61
2022/09/08 06:30:18;;;;;;;37.70;33.28;;;18.30;99.90;;;;;;5041130;28;20131;-60
2022/09/08 06:32:52;;;;;;;40.70;34.05;;;18.30;99.90;;;;;;5030698;28;20044;-60
2022/09/08 06:35:27;;;;;;;38.28;34.05;;;18.30;99.90;;;;;;5025419;28;20186;-60
2022/09/08 06:37:59;;;;;;;44.20;34.88;;;18.30;99.90;;;;;;5048965;28;20049;-60
2022/09/08 06:40:40;;;;;;;42.00;34.83;;;18.30;99.90;;;;;;5041880;28;20051;-61
2022/09/08 06:43:35;;;;;;;42.88;35.47;;;18.30;99.90;;;;;;5042258;28;20163;-60
2022/09/08 06:46:07;;;;;;;50.33;37.15;;;18.30;99.90;;;;;;5045237;28;20048;-61
2022/09/08 06:48:37;;;;;;;48.75;39.25;;;18.30;99.90;;;;;;5021243;28;20072;-61
2022/09/08 06:51:03;;;;;;;49.83;39.40;;;18.30;99.90;;;;;;5026159;28;20045;-61
2022/09/08 06:53:42;;;;;;;48.47;38.65;;;18.20;99.90;;;;;;5021234;28;20413;-60
2022/09/08 06:56:48;;;;;;;51.30;39.80;;;18.20;99.90;;;;;;5041848;28;20040;-59
2022/09/08 06:59:36;;;;;;;51.92;41.03;;;18.10;99.90;;;;;;5029975;28;20045;-59
2022/09/08 07:02:50;;;;;;;51.88;40.03;;;18.10;99.90;;;;;;5023353;28;20131;-60
2022/09/08 07:05:39;;;;;;;;;;;18.10;99.90;;;;;;4986203;28;20056;-60
2022/09/08 07:08:14;;;;;;;52.08;39.75;;;18.00;99.90;;;;;;5038706;28;19929;-60
2022/09/08 07:10:49;;;;;;;48.80;39.45;;;18.00;99.90;;;;;;5022084;28;20153;-59
2022/09/08 07:13:24;;;;;;;48.78;39.92;;;18.00;99.90;;;;;;5037671;28;20110;-59
2022/09/08 07:16:08;;;;;;;51.63;40.90;;;18.00;99.90;;;;;;5040085;28;20052;-60
2022/09/08 07:18:42;;;;;;;54.08;41.97;;;18.00;99.90;;;;;;5039285;28;20499;-60
2022/09/08 07:21:39;;;;;;;54.53;42.67;;;18.00;99.90;;;;;;5040134;28;20075;-59
2022/09/08 07:24:13;;;;;;;52.05;40.05;;;18.00;99.90;;;;;;5038739;28;20084;-59
2022/09/08 07:27:07;;;;;;;51.58;41.30;;;17.90;99.90;;;;;;5027185;28;20758;-59
2022/09/08 07:29:42;;;;;;;55.63;41.45;;;17.90;99.90;;;;;;5034823;28;20449;-61
2022/09/08 07:32:32;;;;;;;53.75;41.83;;;17.90;99.90;;;;;;5038402;28;20524;-59
2022/09/08 07:35:57;;;;;;;57.00;44.22;;;17.80;99.90;;;;;;5002411;28;20071;-59
2022/09/08 07:38:37;;;;;;;53.08;42.25;;;17.80;99.90;;;;;;4974247;28;20576;-59
2022/09/08 07:41:06;;;;;;;52.35;41.03;;;17.80;99.90;;;;;;5023773;28;20050;-59
2022/09/08 07:43:31;;;;;;;54.60;41.30;;;17.80;99.90;;;;;;5042256;28;20048;-59
2022/09/08 07:46:05;;;;;;;48.17;39.80;;;17.80;99.90;;;;;;5026575;28;20056;-60
2022/09/08 07:48:45;;;;;;;53.30;40.72;;;17.80;99.90;;;;;;5038936;28;20060;-60
2022/09/08 07:51:16;;;;;;;46.88;35.70;;;17.80;99.90;;;;;;5023229;28;20070;-59
2022/09/08 07:54:02;;;;;;;45.78;37.53;;;17.80;99.90;;;;;;5040200;28;20060;-59
2022/09/08 07:56:41;;;;;;;51.15;38.10;;;17.80;99.90;;;;;;5037555;28;20060;-63
2022/09/08 07:59:28;;;;;;;50.22;37.03;;;17.80;99.90;;;;;;5037860;28;20056;-60
2022/09/08 08:02:19;;;;;;;46.30;36.28;;;17.70;99.90;;;;;;5021410;28;20083;-59
2022/09/08 08:04:48;;;;;;;51.42;38.22;;;17.70;99.90;;;;;;5041858;28;20048;-60
2022/09/08 08:07:21;;;;;;;45.88;35.72;;;17.70;99.90;;;;;;5026350;28;20186;-60
2022/09/08 08:10:16;;;;;;;48.45;36.45;;;17.70;99.90;;;;;;5024475;28;20068;-59
2022/09/08 08:12:45;;;;;;;49.10;37.03;;;17.70;99.90;;;;;;5053763;28;20057;-60
2022/09/08 08:15:33;;;;;;;46.80;37.05;;;17.70;99.90;;;;;;5050057;28;20040;-59
2022/09/08 08:18:25;;;;;;;47.50;36.95;;;17.60;99.90;;;;;;5043307;28;20057;-59
2022/09/08 08:21:01;;;;;;;46.53;36.60;;;17.60;99.90;;;;;;5041591;28;20182;-60
2022/09/08 08:24:01;;;;;;;43.42;34.10;;;17.60;99.90;;;;;;5031050;28;20656;-60
2022/09/08 08:26:37;;;;;;;43.58;32.92;;;17.60;99.90;;;;;;5042763;28;20678;-60
2022/09/08 08:29:25;;;;;;;43.92;33.58;;;17.60;99.90;;;;;;5030280;28;20065;-58
2022/09/08 08:32:14;;;;;;;38.85;31.02;;;17.60;99.90;;;;;;5039717;28;20040;-59
2022/09/08 08:34:59;;;;;;;38.40;29.02;;;17.60;99.90;;;;;;5040643;28;20048;-61
2022/09/08 08:37:30;;;;;;;33.33;27.17;;;17.60;99.90;;;;;;5042183;28;20443;-60
2022/09/08 08:39:58;;;;;;;30.38;24.50;;;17.60;99.90;;;;;;5042653;28;20635;-61
2022/09/08 08:42:46;;;;;;;30.38;26.33;;;17.60;99.90;;;;;;5044802;28;20052;-59
2022/09/08 08:45:30;;;;;;;31.90;26.33;;;17.60;99.90;;;;;;5043939;28;20045;-60
2022/09/08 08:48:32;;;;;;;34.55;27.40;;;17.60;99.90;;;;;;5041122;28;20118;-60
2022/09/08 08:51:13;;;;;;;30.88;25.73;;;17.70;99.90;;;;;;5023207;28;20133;-60
2022/09/08 08:54:16;;;;;;;31.02;25.50;;;17.70;99.90;;;;;;5043011;28;20049;-61
2022/09/08 08:56:57;;;;;;;30.15;24.60;;;17.70;99.90;;;;;;5013731;28;20079;-60
2022/09/08 08:59:44;;;;;;;31.40;25.13;;;17.70;99.90;;;;;;5043777;28;20060;-59
2022/09/08 09:02:42;;;;;;;29.75;25.10;;;17.80;99.90;;;;;;5028903;28;20053;-61
2022/09/08 09:05:46;;;;;;;36.25;26.27;;;17.80;99.90;;;;;;5038333;28;20048;-61
2022/09/08 09:08:39;;;;;;;29.85;26.55;;;17.90;99.90;;;;;;5020096;28;20056;-60
2022/09/08 09:11:31;;;;;;;32.60;26.55;;;17.90;99.90;;;;;;5020252;28;20044;-60
2022/09/08 09:14:29;;;;;;;33.30;25.40;;;17.90;99.90;;;;;;5039556;28;20035;-60
2022/09/08 09:17:24;;;;;;;27.52;23.38;;;17.90;99.90;;;;;;5020765;28;20140;-61
2022/09/08 09:20:25;;;;;;;24.85;20.45;;;17.90;99.90;;;;;;4997556;28;20140;-61
2022/09/08 09:23:12;;;;;;;19.25;17.13;;;17.90;99.90;;;;;;5022339;28;20067;-61
2022/09/08 09:25:46;;;;;;;18.40;14.95;;;18.00;99.90;;;;;;5006171;28;20073;-60
2022/09/08 09:28:22;;;;;;;14.50;12.95;;;18.00;99.90;;;;;;5025997;28;20109;-61
2022/09/08 09:31:05;;;;;;;14.25;10.77;;;18.00;99.90;;;;;;5040511;28;20045;-60
2022/09/08 09:33:37;;;;;;;12.52;10.25;;;18.00;99.90;;;;;;5030178;28;20053;-60
2022/09/08 09:36:39;;;;;;;;;;;18.00;99.90;;;;;;5046844;28;20045;-60
2022/09/08 09:39:23;;;;;;;12.50;10.55;;;17.90;99.90;;;;;;4972446;28;19921;-60
2022/09/08 09:42:01;;;;;;;13.35;11.43;;;17.90;99.90;;;;;;5044163;28;20499;-60
2022/09/08 09:44:29;;;;;;;15.10;12.68;;;18.00;99.90;;;;;;5029336;28;20174;-59
2022/09/08 09:47:11;;;;;;;14.45;12.70;;;18.00;99.90;;;;;;5046556;28;20048;-60
2022/09/08 09:50:12;;;;;;;14.32;12.57;;;18.00;99.90;;;;;;5045666;28;20738;-60
2022/09/08 09:53:02;;;;;;;14.52;12.57;;;18.10;99.90;;;;;;5027421;28;20135;-61
2022/09/08 09:55:39;;;;;;;13.40;12.10;;;18.10;99.90;;;;;;5029138;28;20474;-60
2022/09/08 09:58:34;;;;;;;12.95;11.52;;;18.20;99.90;;;;;;5029072;28;20052;-60
2022/09/08 10:01:29;;;;;;;11.98;10.70;;;18.20;99.90;;;;;;5052170;28;20040;-60
2022/09/08 10:04:17;;;;;;;11.48;10.27;;;18.30;99.90;;;;;;5048444;28;20079;-61
2022/09/08 10:07:10;;;;;;;13.45;11.50;;;18.40;99.90;;;;;;5031144;28;20077;-61
2022/09/08 10:10:13;;;;;;;12.10;10.82;;;18.50;99.90;;;;;;5046614;28;20045;-60
2022/09/08 10:13:07;;;;;;;12.23;10.07;;;18.50;99.90;;;;;;5047741;28;20044;-60
2022/09/08 10:15:57;;;;;;;11.75;10.27;;;18.50;99.90;;;;;;5028186;28;20049;-61
2022/09/08 10:18:46;;;;;;;13.98;10.30;;;18.60;99.90;;;;;;5047165;28;20056;-61
2022/09/08 10:21:34;;;;;;;11.55;10.35;;;18.60;99.90;;;;;;5004874;28;20052;-60
2022/09/08 10:24:18;;;;;;;11.18;10.00;;;18.60;99.90;;;;;;5030657;28;20060;-61
2022/09/08 10:27:06;;;;;;;11.23;9.90;;;18.60;99.90;;;;;;5035768;28;20140;-60
2022/09/08 10:29:41;;;;;;;10.23;9.13;;;18.60;99.90;;;;;;5040990;28;20057;-61
2022/09/08 10:32:18;;;;;;;11.02;9.20;;;18.60;99.90;;;;;;5047029;28;20556;-60
2022/09/08 10:34:56;;;;;;;10.30;9.23;;;18.60;99.90;;;;;;5043131;28;20678;-60
2022/09/08 10:37:37;;;;;;;8.77;7.90;;;18.60;99.90;;;;;;5032272;28;20049;-60
2022/09/08 10:40:18;;;;;;;10.60;8.65;;;18.60;99.90;;;;;;5025817;28;20522;-61
2022/09/08 10:43:12;;;;;;;10.77;8.45;;;18.60;99.90;;;;;;5045121;28;20048;-60
2022/09/08 10:46:04;;;;;;;9.35;8.02;;;18.60;99.90;;;;;;4988629;28;20053;-60
2022/09/08 10:48:45;;;;;;;10.85;9.63;;;18.60;99.90;;;;;;5027954;28;26067;-61
2022/09/08 10:51:13;;;;;;;11.82;9.20;;;18.60;99.90;;;;;;5037468;28;20079;-60
2022/09/08 10:53:48;;;;;;;9.90;8.90;;;18.60;99.90;;;;;;5045354;28;20604;-60
2022/09/08 10:56:21;;;;;;;9.80;8.85;;;18.60;99.90;;;;;;5053232;28;20173;-61
2022/09/08 10:59:05;;;;;;;9.90;7.70;;;18.60;99.90;;;;;;5046665;28;20305;-60
2022/09/08 11:01:40;;;;;;;7.68;6.32;;;18.60;99.90;;;;;;5048977;28;20037;-59
2022/09/08 11:04:45;;;;;;;6.05;5.30;;;18.60;99.90;;;;;;5049596;28;20044;-59
2022/09/08 11:07:37;;;;;;;5.45;4.78;;;18.50;99.90;;;;;;5029894;28;20044;-60
2022/09/08 11:10:25;;;;;;;4.88;4.20;;;18.40;99.90;;;;;;5017132;28;20060;-61
2022/09/08 11:13:15;;;;;;;4.95;3.58;;;18.40;99.90;;;;;;5050031;28;20503;-60
2022/09/08 11:15:41;;;;;;;6.63;4.10;;;18.30;99.90;;;;;;5045666;28;20118;-60
2022/09/08 11:18:35;;;;;;;3.95;3.50;;;18.30;99.90;;;;;;5047627;28;20052;-61
2022/09/08 11:21:07;;;;;;;4.10;3.08;;;18.20;99.90;;;;;;5047920;28;20059;-60
2022/09/08 11:23:54;;;;;;;5.07;3.40;;;18.20;99.90;;;;;;5046002;28;20060;-60
2022/09/08 11:26:23;;;;;;;4.10;3.05;;;18.10;99.90;;;;;;5050738;28;20453;-61
2022/09/08 11:28:55;;;;;;;4.93;3.30;;;18.10;99.90;;;;;;5049375;28;20114;-59
2022/09/08 11:31:21;;;;;;;4.53;3.28;;;18.10;99.90;;;;;;5032081;28;20152;-60
2022/09/08 11:34:14;;;;;;;6.22;3.60;;;18.10;99.90;;;;;;5047153;28;20036;-60
2022/09/08 11:36:49;;;;;;;;;;;18.10;99.90;;;;;;5026753;28;20037;-60
2022/09/08 11:39:33;;;;;;;5.03;3.13;;;18.10;99.90;;;;;;5041914;28;19923;-59
2022/09/08 11:42:32;;;;;;;3.55;2.17;;;18.10;99.90;;;;;;5042537;28;20395;-60
2022/09/08 11:45:13;;;;;;;5.20;2.60;;;18.00;99.90;;;;;;5049938;28;20554;-59
2022/09/08 11:48:03;;;;;;;3.28;2.40;;;18.00;99.90;;;;;;5048680;28;20068;-61
2022/09/08 11:50:54;;;;;;;3.67;2.15;;;18.00;99.90;;;;;;5050247;28;20080;-60
2022/09/08 11:53:35;;;;;;;3.22;1.92;;;18.00;99.90;;;;;;5048638;28;20045;-60
2022/09/08 11:56:29;;;;;;;5.43;2.15;;;17.90;99.90;;;;;;5042175;28;20044;-59
2022/09/08 11:59:07;;;;;;;2.33;2.10;;;17.90;99.90;;;;;;5047953;28;20059;-60
2022/09/08 12:01:42;;;;;;;4.32;2.10;;;17.90;99.90;;;;;;5046082;28;20052;-61
2022/09/08 12:04:28;;;;;;;4.47;2.63;;;17.80;99.90;;;;;;5052521;28;20052;-60
2022/09/08 12:07:07;;;;;;;3.50;2.60;;;17.80;99.90;;;;;;5048447;28;20052;-59
2022/09/08 12:10:05;;;;;;;2.97;2.30;;;17.80;99.90;;;;;;5043612;28;20037;-60
2022/09/08 12:12:40;;;;;;;6.75;2.75;;;17.90;99.90;;;;;;5043416;28;20270;-60
2022/09/08 12:15:21;;;;;;;5.70;2.78;;;17.80;99.90;;;;;;5048448;28;20149;-59
2022/09/08 12:18:08;;;;;;;3.97;2.70;;;17.80;99.90;;;;;;5045258;28;20083;-61
2022/09/08 12:20:46;;;;;;;3.40;2.80;;;17.80;99.90;;;;;;5043987;28;20488;-60
2022/09/08 12:23:42;;;;;;;3.67;2.40;;;17.90;99.90;;;;;;5041347;28;20044;-61
2022/09/08 12:26:14;;;;;;;6.53;2.75;;;17.90;99.90;;;;;;5022618;28;20055;-60
2022/09/08 12:28:48;;;;;;;6.75;2.88;;;17.90;99.90;;;;;;5043529;28;20079;-60
2022/09/08 12:31:28;;;;;;;5.53;3.25;;;17.90;99.90;;;;;;5028485;28;20067;-60
2022/09/08 12:34:15;;;;;;;4.07;3.22;;;17.90;99.90;;;;;;5044943;28;20064;-60
2022/09/08 12:36:46;;;;;;;4.50;2.90;;;17.90;99.90;;;;;;5034392;28;20058;-60
2022/09/08 12:39:15;;;;;;;4.22;2.65;;;17.90;99.90;;;;;;5027158;28;20067;-59
2022/09/08 12:41:49;;;;;;;3.90;2.95;;;18.00;99.90;;;;;;5045181;28;20083;-60
2022/09/08 12:44:47;;;;;;;3.10;2.50;;;18.00;99.90;;;;;;5018763;28;20041;-60
2022/09/08 12:47:37;;;;;;;4.75;2.22;;;18.00;99.90;;;;;;5038751;28;20122;-60
2022/09/08 12:50:20;;;;;;;4.85;2.90;;;18.10;99.90;;;;;;5037091;28;20063;-61
2022/09/08 12:52:54;;;;;;;5.50;3.03;;;18.10;99.90;;;;;;5043291;28;20059;-61
2022/09/08 12:55:57;;;;;;;5.03;3.17;;;18.10;99.90;;;;;;5049506;28;20041;-61
2022/09/08 12:58:26;;;;;;;5.47;3.33;;;18.10;99.90;;;;;;5046643;28;20059;-60
2022/09/08 13:00:57;;;;;;;6.85;3.10;;;18.10;99.90;;;;;;5036901;28;20051;-59
2022/09/08 13:03:33;;;;;;;5.53;3.15;;;18.10;99.90;;;;;;5026016;28;20080;-61
2022/09/08 13:06:51;;;;;;;4.63;3.33;;;18.20;99.90;;;;;;5016833;28;20063;-60
2022/09/08 13:09:26;;;;;;;3.30;3.00;;;18.20;99.90;;;;;;4971379;28;20046;-60
2022/09/08 13:12:18;;;;;;;6.15;3.80;;;18.10;99.90;;;;;;4951404;28;20116;-60
2022/09/08 13:15:01;;;;;;;4.65;3.22;;;18.10;99.90;;;;;;5008241;28;20064;-61
2022/09/08 13:17:48;;;;;;;5.88;3.45;;;18.10;99.90;;;;;;5024495;28;20060;-60
2022/09/08 13:20:36;;;;;;;5.43;3.42;;;18.10;99.90;;;;;;5026412;28;20562;-60